Time;durP1;ratioP1;P1;durP2;ratioP2;P2;SDS_P1;SDS_P2;PMS_P1;PMS_P2;Temp;Humidity;BMP_temperature;BMP_pressure;BME280_temperature;BME280_humidity;BME280_pressure;Samples;Min_cycle;Max_cycle;Signal;HPM_P1;HPM_P2
2022/09/16 00:00:26;;;;;;;17.10;3.50;;;;;;;17.94;82.14;94494.63;5104813;27;20070;-64
2022/09/16 00:02:55;;;;;;;15.18;3.22;;;;;;;17.93;82.77;94508.84;5092385;28;20062;-66
2022/09/16 00:05:22;;;;;;;10.27;2.88;;;;;;;17.88;83.09;94506.28;5106770;27;20080;-67
2022/09/16 00:07:49;;;;;;;11.52;2.60;;;;;;;17.85;83.51;94502.38;5099718;27;20096;-66
2022/09/16 00:10:16;;;;;;;9.68;2.95;;;;;;;17.78;84.01;94492.16;5098681;27;20139;-67
2022/09/16 00:12:42;;;;;;;9.20;2.88;;;;;;;17.65;85.16;94492.88;5102147;27;20418;-69
2022/09/16 00:15:10;;;;;;;13.60;3.53;;;;;;;17.59;85.48;94499.25;5104759;27;20074;-67
2022/09/16 00:17:39;;;;;;;13.95;3.55;;;;;;;17.54;85.93;94486.19;5103139;27;20043;-68
2022/09/16 00:20:09;;;;;;;9.80;2.72;;;;;;;17.46;86.44;94484.16;5100635;27;20132;-70
2022/09/16 00:22:36;;;;;;;10.02;3.08;;;;;;;17.39;87.82;94493.19;5079545;28;20055;-67
2022/09/16 00:25:04;;;;;;;10.38;3.25;;;;;;;17.42;87.28;94493.69;5102040;27;20035;-70
2022/09/16 00:27:30;;;;;;;12.90;3.13;;;;;;;17.36;87.12;94499.00;5098322;27;20114;-69
2022/09/16 00:29:57;;;;;;;14.98;3.60;;;;;;;17.30;87.85;94502.75;5100968;28;20063;-69
2022/09/16 00:32:24;;;;;;;22.92;3.38;;;;;;;17.30;88.12;94502.75;5100025;27;20067;-66
2022/09/16 00:34:51;;;;;;;10.48;3.65;;;;;;;17.30;87.98;94486.97;5081816;28;20046;-67
2022/09/16 00:37:19;;;;;;;12.35;2.92;;;;;;;17.29;88.25;94498.56;5078794;28;20525;-68
2022/09/16 00:39:49;;;;;;;9.88;2.63;;;;;;;17.19;89.25;94485.50;5101415;27;20040;-66
2022/09/16 00:42:17;;;;;;;9.95;3.25;;;;;;;17.27;90.30;94498.06;5097117;27;20839;-67
2022/09/16 00:45:05;;;;;;;4.82;2.40;;;;;;;17.25;89.74;94494.94;5097602;27;20122;-68
2022/09/16 00:47:42;;;;;;;8.13;2.58;;;;;;;17.06;90.31;94475.69;5083512;27;20128;-66
2022/09/16 00:50:37;;;;;;;9.82;2.40;;;;;;;17.16;90.61;94489.50;5099447;27;20048;-67
2022/09/16 00:53:12;;;;;;;24.70;3.70;;;;;;;17.19;90.43;94486.28;5080552;27;20047;-66
2022/09/16 00:55:39;;;;;;;8.65;2.97;;;;;;;17.18;90.38;94483.97;5097485;27;20047;-68
2022/09/16 00:58:17;;;;;;;10.73;2.53;;;;;;;17.14;90.53;94493.47;5098883;27;20051;-67
2022/09/16 01:00:43;;;;;;;7.93;2.67;;;;;;;17.11;91.53;94488.78;5096735;27;20108;-67
2022/09/16 01:03:10;;;;;;;14.50;2.92;;;;;;;17.07;91.67;94488.56;5100299;27;20118;-67
2022/09/16 01:05:38;;;;;;;6.85;2.60;;;;;;;17.07;92.43;94503.53;5097047;27;20175;-67
2022/09/16 01:08:05;;;;;;;14.57;3.20;;;;;;;16.94;92.49;94500.53;5095733;27;20048;-67
2022/09/16 01:10:31;;;;;;;10.50;3.90;;;;;;;16.99;93.18;94507.56;5064184;28;20509;-68
2022/09/16 01:13:06;;;;;;;9.63;3.35;;;;;;;16.97;93.04;94505.22;5077601;27;20055;-67
2022/09/16 01:16:17;;;;;;;18.95;3.78;;;;;;;16.98;92.69;94506.78;5097496;27;20047;-68
2022/09/16 01:19:02;;;;;;;20.77;2.83;;;;;;;16.96;92.73;94514.19;5040815;28;20626;-68
2022/09/16 01:21:57;;;;;;;13.02;3.65;;;;;;;16.94;93.90;94516.31;5096205;27;20136;-67
2022/09/16 01:24:51;;;;;;;13.45;3.10;;;;;;;16.91;95.12;94511.59;5096912;27;20432;-68
2022/09/16 01:27:30;;;;;;;15.15;3.63;;;;;;;16.90;95.50;94515.28;5098247;27;20087;-68
2022/09/16 01:30:28;;;;;;;14.95;3.88;;;;;;;16.91;95.07;94516.84;5100117;27;20100;-68
2022/09/16 01:33:13;;;;;;;5.35;2.67;;;;;;;16.89;95.62;94519.00;5098760;28;20039;-68
2022/09/16 01:36:19;;;;;;;10.95;2.72;;;;;;;16.82;95.69;94502.72;5098284;28;20047;-67
2022/09/16 01:38:56;;;;;;;11.75;4.00;;;;;;;16.83;96.69;94509.56;5063225;28;20104;-67
2022/09/16 01:41:35;;;;;;;10.15;3.70;;;;;;;16.86;96.76;94511.66;5097586;28;20124;-67
2022/09/16 01:44:35;;;;;;;16.20;3.92;;;;;;;16.90;97.21;94506.59;5098175;28;20115;-67
2022/09/16 01:47:12;;;;;;;25.15;3.53;;;;;;;16.89;96.33;94511.09;5052363;28;20051;-67
2022/09/16 01:49:45;;;;;;;8.13;2.58;;;;;;;16.91;95.07;94501.06;5100262;27;20109;-67
2022/09/16 01:52:29;;;;;;;9.80;2.47;;;;;;;16.94;94.44;94505.78;5096797;27;20475;-67
2022/09/16 01:55:07;;;;;;;10.88;2.50;;;;;;;16.95;94.05;94502.09;5097616;27;20840;-67
2022/09/16 01:58:02;;;;;;;10.02;2.90;;;;;;;16.96;94.32;94514.19;5096770;28;20568;-68
2022/09/16 02:00:31;;;;;;;11.75;2.75;;;;;;;16.96;94.42;94514.19;5100134;28;21284;-68
2022/09/16 02:03:03;;;;;;;19.27;3.05;;;;;;;16.92;94.39;94513.16;5095247;27;20047;-66
2022/09/16 02:05:36;;;;;;;11.25;3.20;;;;;;;16.87;94.86;94507.16;5098205;28;20143;-66
2022/09/16 02:08:12;;;;;;;7.25;2.53;;;;;;;16.88;95.50;94506.09;5095904;28;20512;-68
2022/09/16 02:10:43;;;;;;;5.55;2.95;;;;;;;16.82;95.56;94505.34;5096587;28;20578;-68
2022/09/16 02:13:17;;;;;;;10.25;2.60;;;;;;;16.65;96.60;94494.47;5096256;28;20039;-67
2022/09/16 02:15:49;;;;;;;12.10;3.17;;;;;;;16.64;96.25;94480.53;5097267;28;20075;-68
2022/09/16 02:18:23;;;;;;;7.22;2.65;;;;;;;16.69;95.87;94492.84;5097098;28;20063;-67
2022/09/16 02:20:53;;;;;;;4.15;2.45;;;;;;;16.58;95.19;94464.03;5096674;28;20069;-67
2022/09/16 02:23:29;;;;;;;6.95;2.40;;;;;;;16.81;94.62;94485.34;5097013;28;20542;-68
2022/09/16 02:25:59;;;;;;;10.85;3.10;;;;;;;16.88;94.28;94483.22;5095749;28;21668;-67
2022/09/16 02:28:33;;;;;;;12.73;3.08;;;;;;;16.92;94.66;94497.38;5099807;28;20551;-67
2022/09/16 02:31:05;;;;;;;10.07;2.70;;;;;;;16.92;94.43;94471.06;5097398;28;20703;-67
2022/09/16 02:33:37;;;;;;;9.85;2.58;;;;;;;16.89;94.80;94461.13;5101700;28;20118;-66
2022/09/16 02:36:07;;;;;;;11.13;2.45;;;;;;;17.04;94.50;94483.06;5076405;28;20040;-67
2022/09/16 02:38:40;;;;;;;18.20;2.85;;;;;;;17.12;93.89;94485.06;5097642;28;20044;-67
2022/09/16 02:41:13;;;;;;;13.07;2.60;;;;;;;17.19;92.87;94490.78;5095866;28;20494;-67
2022/09/16 02:43:41;;;;;;;9.30;2.22;;;;;;;17.17;92.36;94485.00;5095532;28;20040;-67
2022/09/16 02:46:20;;;;;;;11.77;3.15;;;;;;;17.22;92.54;94492.84;5098145;27;20625;-68
2022/09/16 02:49:06;;;;;;;12.15;2.65;;;;;;;17.26;91.99;94491.22;5097564;27;20050;-67
2022/09/16 02:52:03;;;;;;;15.50;2.92;;;;;;;17.31;91.75;94493.81;5099299;27;20440;-67
2022/09/16 02:54:38;;;;;;;12.48;3.40;;;;;;;17.30;91.20;94497.50;5102936;27;20051;-68
2022/09/16 02:57:05;;;;;;;6.40;2.78;;;;;;;17.24;91.13;94496.00;5097308;27;21527;-68
2022/09/16 02:59:32;;;;;;;8.18;2.85;;;;;;;17.26;91.39;94501.75;5106166;27;20050;-67
2022/09/16 03:02:00;;;;;;;9.90;2.72;;;;;;;17.27;92.16;94498.06;5099217;27;20168;-68
2022/09/16 03:04:28;;;;;;;7.50;3.22;;;;;;;17.30;92.67;94496.72;5103172;27;20043;-67
2022/09/16 03:06:54;;;;;;;12.65;3.72;;;;;;;17.29;92.53;94503.84;5084654;27;20079;-68
2022/09/16 03:09:23;;;;;;;10.63;3.13;;;;;;;17.22;93.01;94506.03;5104347;27;20031;-68
2022/09/16 03:12:08;;;;;;;11.80;3.05;;;;;;;17.25;92.79;94516.00;5066640;28;20474;-69
2022/09/16 03:14:41;;;;;;;7.63;2.72;;;;;;;17.26;92.65;94517.53;5085825;28;20040;-67
2022/09/16 03:17:40;;;;;;;8.02;2.95;;;;;;;17.31;93.50;94535.13;5100435;27;20048;-67
2022/09/16 03:20:27;;;;;;;13.85;3.80;;;;;;;17.34;93.23;94524.84;5102938;27;20508;-68
2022/09/16 03:23:12;;;;;;;18.73;2.88;;;;;;;17.38;93.26;94525.84;5097634;27;20067;-67
2022/09/16 03:26:12;;;;;;;12.63;4.35;;;;;;;17.40;92.17;94522.94;5081465;28;20995;-68
2022/09/16 03:29:11;;;;;;;10.65;3.15;;;;;;;17.46;92.51;94521.78;5099489;27;20052;-68
2022/09/16 03:31:58;;;;;;;17.63;3.15;;;;;;;17.52;92.09;94530.41;5103733;27;20536;-67
2022/09/16 03:34:37;;;;;;;12.60;3.47;;;;;;;17.53;92.44;94542.50;5106938;27;20131;-67
2022/09/16 03:37:07;;;;;;;15.95;3.33;;;;;;;17.61;93.34;94538.47;5103146;28;20556;-67
2022/09/16 03:39:35;;;;;;;19.92;4.57;;;;;;;17.68;94.14;94523.91;5102357;27;20142;-67
2022/09/16 03:42:06;;;;;;;21.67;4.43;;;;;;;17.70;96.63;94511.25;5086169;28;20047;-68
2022/09/16 03:44:35;;;;;;;14.85;4.57;;;;;;;17.72;97.63;94509.09;5102151;27;20038;-67
2022/09/16 03:47:03;;;;;;;16.02;3.42;;;;;;;17.75;99.00;94513.81;5107606;27;20039;-66
2022/09/16 03:49:29;;;;;;;14.20;4.10;;;;;;;17.76;99.15;94507.47;5104645;27;20116;-67
2022/09/16 03:51:57;;;;;;;14.95;3.72;;;;;;;17.77;100.00;94509.03;5092460;27;20039;-67
2022/09/16 03:54:24;;;;;;;11.13;3.90;;;;;;;17.72;100.00;94509.09;5106293;27;20105;-68
2022/09/16 03:56:51;;;;;;;21.45;3.70;;;;;;;17.70;100.00;94511.25;5106130;27;20112;-67
2022/09/16 03:59:18;;;;;;;14.82;3.85;;;;;;;17.67;100.00;94517.06;5090247;28;20047;-69
2022/09/16 04:01:45;;;;;;;17.88;4.10;;;;;;;17.63;100.00;94516.06;5105322;27;20126;-67
2022/09/16 04:04:12;;;;;;;13.55;3.92;;;;;;;17.60;100.00;94514.00;5104774;27;20032;-67
2022/09/16 04:06:39;;;;;;;16.45;3.70;;;;;;;17.49;100.00;94489.63;5083529;27;20112;-67
2022/09/16 04:09:07;;;;;;;10.38;3.08;;;;;;;17.53;100.00;94495.13;5102915;27;20050;-67
2022/09/16 04:11:34;;;;;;;10.70;3.70;;;;;;;17.52;100.00;94483.81;5099744;27;20055;-67
2022/09/16 04:14:00;;;;;;;12.02;3.75;;;;;;;17.53;99.83;94490.63;5106386;27;20067;-68
2022/09/16 04:16:27;;;;;;;16.73;4.70;;;;;;;17.54;100.00;94505.38;5110464;27;20116;-67
2022/09/16 04:18:54;;;;;;;16.92;3.85;;;;;;;17.52;100.00;94512.78;5112489;27;20078;-67
2022/09/16 04:21:21;;;;;;;16.65;2.95;;;;;;;17.55;100.00;94514.06;5112347;27;20071;-67
2022/09/16 04:23:48;;;;;;;13.48;3.40;;;;;;;17.50;99.38;94527.28;5103231;27;20120;-67
2022/09/16 04:26:16;;;;;;;9.13;3.70;;;;;;;17.55;100.00;94528.00;5078442;27;20039;-67
2022/09/16 04:28:43;;;;;;;14.95;3.95;;;;;;;17.58;100.00;94531.94;5098741;27;20052;-68
2022/09/16 04:31:11;;;;;;;10.77;4.10;;;;;;;17.64;100.00;94536.06;5082696;28;20085;-67
2022/09/16 04:33:39;;;;;;;21.35;3.75;;;;;;;17.69;100.00;94535.22;5100035;27;20047;-68
2022/09/16 04:36:11;;;;;;;12.98;3.33;;;;;;;17.69;100.00;94525.47;5083425;28;20112;-68
2022/09/16 04:38:40;;;;;;;12.45;4.13;;;;;;;17.72;100.00;94524.91;5096623;27;20708;-68
2022/09/16 04:41:15;;;;;;;7.10;3.60;;;;;;;17.77;100.00;94527.47;5102891;27;20047;-68
2022/09/16 04:43:42;;;;;;;20.83;4.10;;;;;;;17.76;100.00;94525.13;5095140;27;20043;-68
2022/09/16 04:46:09;;;;;;;13.95;4.82;;;;;;;17.75;100.00;94528.81;5101408;28;20119;-68
2022/09/16 04:48:37;;;;;;;10.98;3.95;;;;;;;17.66;100.00;94536.56;5099466;27;20432;-67
2022/09/16 04:51:07;;;;;;;9.13;3.50;;;;;;;17.73;100.00;94542.25;5100541;27;20037;-68
2022/09/16 04:53:35;;;;;;;14.25;3.00;;;;;;;17.78;100.00;94544.84;5097160;27;20150;-69
2022/09/16 04:56:07;;;;;;;17.67;3.25;;;;;;;17.61;98.41;94555.06;5097014;27;20063;-68
2022/09/16 04:58:35;;;;;;;14.88;4.35;;;;;;;17.63;98.40;94558.22;5079066;28;20075;-71
2022/09/16 05:01:13;;;;;;;9.05;3.72;;;;;;;17.63;98.37;94547.69;5080902;28;20053;-72
2022/09/16 05:03:42;;;;;;;9.32;3.63;;;;;;;17.71;98.35;94554.94;5079639;28;20676;-71
2022/09/16 05:06:12;;;;;;;12.32;4.53;;;;;;;17.72;98.53;94545.97;5097712;27;20340;-72
2022/09/16 05:08:46;;;;;;;13.70;4.53;;;;;;;17.81;98.00;94537.44;5097599;27;20040;-72
2022/09/16 05:11:16;;;;;;;12.32;4.15;;;;;;;17.82;98.25;94528.47;5099027;27;20043;-72
2022/09/16 05:13:43;;;;;;;8.95;3.75;;;;;;;17.90;98.19;94533.94;5081695;28;20122;-71
2022/09/16 05:16:12;;;;;;;9.88;3.58;;;;;;;17.95;97.54;94527.78;5095297;27;20074;-70
2022/09/16 05:18:41;;;;;;;10.30;3.10;;;;;;;18.09;97.32;94531.28;5077662;28;20047;-72
2022/09/16 05:21:11;;;;;;;14.68;3.75;;;;;;;18.21;97.00;94530.88;5074440;28;20044;-72
2022/09/16 05:23:39;;;;;;;23.80;3.70;;;;;;;18.38;95.89;94525.06;5092862;27;20103;-71
2022/09/16 05:26:14;;;;;;;;;;;;;;;18.53;94.99;94529.34;5098481;27;20040;-72
2022/09/16 05:28:42;;;;;;;10.93;4.72;;;;;;;18.69;93.94;94533.28;5100214;27;19981;-71
2022/09/16 05:31:16;;;;;;;9.70;4.57;;;;;;;18.61;93.17;94525.25;5094102;28;20104;-67
2022/09/16 05:33:46;;;;;;;14.18;3.60;;;;;;;18.62;92.85;94513.63;5098555;27;20051;-68
2022/09/16 05:36:15;;;;;;;10.02;3.83;;;;;;;18.87;92.49;94521.16;5097697;27;20078;-68
2022/09/16 05:38:43;;;;;;;13.40;3.30;;;;;;;19.06;92.02;94528.22;5098041;28;20509;-69
2022/09/16 05:41:30;;;;;;;13.50;3.95;;;;;;;19.30;88.83;94522.75;5093928;27;20159;-68
2022/09/16 05:43:59;;;;;;;14.18;3.63;;;;;;;19.40;87.07;94533.13;5098277;27;20043;-68
2022/09/16 05:46:27;;;;;;;9.73;3.28;;;;;;;19.57;85.24;94527.28;5096535;27;20522;-67
2022/09/16 05:48:55;;;;;;;11.35;3.83;;;;;;;19.67;83.36;94524.41;5079012;28;20044;-68
2022/09/16 05:51:23;;;;;;;11.05;3.53;;;;;;;19.78;80.70;94532.16;5076563;28;20055;-69
2022/09/16 05:53:52;;;;;;;10.65;3.28;;;;;;;19.90;80.68;94529.78;5094862;27;20617;-68
2022/09/16 05:56:21;;;;;;;8.77;2.97;;;;;;;20.02;79.92;94527.41;5099210;27;20104;-67
2022/09/16 05:58:53;;;;;;;15.65;3.72;;;;;;;20.18;79.40;94519.13;5093887;27;20032;-68
2022/09/16 06:01:23;;;;;;;13.02;3.95;;;;;;;20.27;76.48;94521.84;5099520;28;20079;-68
2022/09/16 06:03:51;;;;;;;9.20;3.30;;;;;;;20.44;76.82;94527.28;5095681;27;20036;-68
2022/09/16 06:06:25;;;;;;;16.05;3.08;;;;;;;20.66;75.43;94529.16;5098476;28;21543;-68
2022/09/16 06:08:54;;;;;;;13.30;3.88;;;;;;;20.77;75.53;94519.88;5094151;28;20035;-68
2022/09/16 06:11:21;;;;;;;21.65;3.55;;;;;;;20.97;72.36;94512.53;5101139;28;20039;-68
2022/09/16 06:13:56;;;;;;;8.77;3.45;;;;;;;21.16;72.58;94518.38;5095450;28;20119;-69
2022/09/16 06:16:26;;;;;;;7.07;3.20;;;;;;;21.37;71.21;94520.47;5103733;28;20093;-68
2022/09/16 06:18:54;;;;;;;13.23;3.08;;;;;;;21.48;65.74;94527.09;5103624;28;20070;-68
2022/09/16 06:21:22;;;;;;;10.50;2.88;;;;;;;21.63;66.13;94533.06;5103414;27;20051;-68
2022/09/16 06:23:49;;;;;;;9.32;2.50;;;;;;;21.85;66.60;94524.22;5100036;27;20060;-68
2022/09/16 06:26:22;;;;;;;12.93;2.90;;;;;;;22.17;63.51;94525.66;5102531;28;20043;-68
2022/09/16 06:28:50;;;;;;;7.25;3.00;;;;;;;22.44;64.48;94523.81;5080993;28;20047;-68
2022/09/16 06:31:20;;;;;;;15.10;2.78;;;;;;;22.53;60.58;94529.91;5104845;27;20039;-68
2022/09/16 06:33:49;;;;;;;10.18;2.58;;;;;;;22.63;59.04;94526.91;5102993;27;20047;-67
2022/09/16 06:36:25;;;;;;;16.42;3.35;;;;;;;22.78;58.03;94512.38;5100132;27;20186;-68
2022/09/16 06:38:52;;;;;;;10.38;3.20;;;;;;;23.01;56.82;94520.91;5105927;27;20512;-68
2022/09/16 06:41:20;;;;;;;15.68;3.58;;;;;;;23.22;55.54;94514.94;5100225;27;20063;-69
2022/09/16 06:43:50;;;;;;;10.00;2.47;;;;;;;23.36;54.93;94520.81;5102798;27;20048;-68
2022/09/16 06:46:20;;;;;;;19.30;2.67;;;;;;;23.51;54.85;94518.72;5101392;27;20043;-68
2022/09/16 06:48:49;;;;;;;13.45;2.28;;;;;;;23.74;54.70;94525.31;5103599;27;20674;-68
2022/09/16 06:51:22;;;;;;;11.75;2.72;;;;;;;23.97;52.57;94527.72;5099916;27;20155;-68
2022/09/16 06:53:50;;;;;;;13.82;2.75;;;;;;;24.09;50.79;94535.75;5102527;27;20052;-69
2022/09/16 06:56:19;;;;;;;10.15;2.28;;;;;;;24.21;51.90;94535.81;5101046;27;20036;-68
2022/09/16 06:58:49;;;;;;;13.38;2.67;;;;;;;24.27;50.17;94531.09;5104387;27;20946;-68
2022/09/16 07:01:18;;;;;;;11.63;2.65;;;;;;;24.35;50.08;94532.91;5103373;27;20595;-68
2022/09/16 07:03:47;;;;;;;10.00;2.28;;;;;;;24.38;50.63;94534.13;5107530;27;20059;-68
2022/09/16 07:06:15;;;;;;;18.80;2.67;;;;;;;24.39;50.68;94539.13;5101041;27;20047;-68
2022/09/16 07:08:43;;;;;;;8.93;2.83;;;;;;;24.45;50.51;94531.72;5100189;27;20857;-69
2022/09/16 07:11:13;;;;;;;15.18;2.60;;;;;;;24.53;50.07;94538.91;5083403;28;20705;-69
2022/09/16 07:13:41;;;;;;;7.47;2.83;;;;;;;24.75;49.89;94539.66;5102605;27;20066;-68
2022/09/16 07:16:11;;;;;;;8.00;2.42;;;;;;;24.80;49.15;94558.84;5101531;27;20721;-69
2022/09/16 07:18:41;;;;;;;15.02;3.40;;;;;;;24.85;47.33;94533.91;5100395;27;20077;-69
2022/09/16 07:21:11;;;;;;;17.23;2.25;;;;;;;24.91;47.55;94553.91;5105016;27;20100;-68
2022/09/16 07:23:38;;;;;;;13.02;2.75;;;;;;;25.00;48.04;94522.63;5097283;27;20044;-69
2022/09/16 07:26:06;;;;;;;12.40;2.33;;;;;;;25.00;46.57;94543.94;5103950;27;20100;-69
2022/09/16 07:28:34;;;;;;;17.50;2.35;;;;;;;25.04;46.30;94532.63;5099453;27;20097;-69
2022/09/16 07:31:03;;;;;;;6.82;2.22;;;;;;;25.17;46.09;94534.19;5102588;28;20456;-68
2022/09/16 07:33:32;;;;;;;11.48;2.33;;;;;;;25.39;47.18;94525.06;5081117;27;20051;-69
2022/09/16 07:36:00;;;;;;;8.90;2.63;;;;;;;25.57;45.95;94546.94;5083945;28;20039;-69
2022/09/16 07:38:28;;;;;;;9.25;2.55;;;;;;;25.80;46.40;94539.25;5082020;27;20758;-68
2022/09/16 07:41:02;;;;;;;11.45;2.85;;;;;;;25.71;45.11;94531.38;5104243;27;20048;-68
2022/09/16 07:43:29;;;;;;;;;;;;;;;25.76;46.36;94544.47;5102705;27;20595;-69
2022/09/16 07:45:56;;;;;;;13.45;3.28;;;;;;;25.59;46.61;94534.06;5103760;27;19924;-68
2022/09/16 07:48:24;;;;;;;10.32;2.78;;;;;;;25.87;45.49;94528.03;5102227;27;20043;-69
2022/09/16 07:51:12;;;;;;;11.48;2.28;;;;;;;26.07;44.43;94516.47;5108497;27;20073;-68
2022/09/16 07:53:39;;;;;;;7.45;2.35;;;;;;;26.38;45.02;94508.91;5107967;27;20107;-70
2022/09/16 07:56:12;;;;;;;13.27;2.53;;;;;;;26.67;43.80;94515.84;5088607;28;20909;-71
2022/09/16 07:58:40;;;;;;;12.23;2.90;;;;;;;26.89;42.19;94520.63;5091915;28;20050;-71
2022/09/16 08:01:08;;;;;;;9.05;2.00;;;;;;;26.97;41.46;94518.13;5084740;27;20051;-71
2022/09/16 08:03:36;;;;;;;9.20;2.05;;;;;;;26.89;41.33;94517.97;5099983;27;20048;-70
2022/09/16 08:06:07;;;;;;;16.75;2.70;;;;;;;26.92;41.77;94516.50;5099063;27;20059;-70
2022/09/16 08:08:34;;;;;;;14.15;3.00;;;;;;;27.06;39.69;94505.38;5103024;27;20053;-70
2022/09/16 08:11:02;;;;;;;24.00;2.38;;;;;;;27.21;39.95;94507.31;5098191;27;20048;-70
2022/09/16 08:13:31;;;;;;;8.27;1.85;;;;;;;27.25;39.17;94502.03;5104482;27;20092;-70
2022/09/16 08:16:06;;;;;;;14.63;2.95;;;;;;;27.29;39.34;94496.81;5102673;27;20096;-72
2022/09/16 08:18:34;;;;;;;31.83;10.15;;;;;;;27.33;39.00;94486.97;5099268;27;20098;-72
2022/09/16 08:21:19;;;;;;;9.23;3.33;;;;;;;27.47;38.22;94500.69;5080344;28;20512;-72
2022/09/16 08:23:47;;;;;;;12.80;3.03;;;;;;;27.63;39.25;94498.75;5085319;27;20050;-70
2022/09/16 08:26:15;;;;;;;14.52;4.05;;;;;;;27.99;38.92;94496.91;5099621;27;20036;-71
2022/09/16 08:28:43;;;;;;;9.65;2.20;;;;;;;28.20;37.66;94501.16;5097781;27;20075;-72
2022/09/16 08:31:30;;;;;;;7.25;2.17;;;;;;;28.26;37.70;94498.97;5085258;27;20055;-71
2022/09/16 08:33:57;;;;;;;14.25;2.03;;;;;;;28.06;36.84;94484.81;5082136;28;20757;-73
2022/09/16 08:36:25;;;;;;;16.08;2.40;;;;;;;28.06;37.89;94490.91;5097359;27;20749;-72
2022/09/16 08:38:54;;;;;;;9.73;2.22;;;;;;;28.11;37.40;94497.88;5113850;27;20854;-72
2022/09/16 08:42:08;;;;;;;12.18;2.92;;;;;;;27.95;36.96;94474.63;5096428;27;20132;-72
2022/09/16 08:45:00;;;;;;;15.90;2.72;;;;;;;28.29;37.44;94472.28;5068105;27;20100;-73
2022/09/16 08:47:33;;;;;;;7.63;2.42;;;;;;;28.81;37.14;94485.47;5081389;27;20725;-78
2022/09/16 08:50:04;;;;;;;14.30;3.90;;;;;;;29.05;35.80;94487.84;5078564;28;20036;-69
2022/09/16 08:52:34;;;;;;;11.63;2.45;;;;;;;29.29;36.28;94488.63;5098751;27;20128;-71
2022/09/16 08:55:05;;;;;;;12.27;2.55;;;;;;;29.58;36.94;94489.06;5101183;27;20043;-68
2022/09/16 08:57:38;;;;;;;12.60;3.00;;;;;;;29.66;35.55;94480.78;5098430;27;20043;-68
2022/09/16 09:00:17;;;;;;;17.23;4.65;;;;;;;29.63;34.92;94480.72;5096424;27;20044;-74
2022/09/16 09:02:51;;;;;;;15.85;3.22;;;;;;;29.55;34.54;94472.56;5105682;27;20059;-72
2022/09/16 09:05:24;;;;;;;13.98;2.50;;;;;;;29.46;34.58;94476.63;5096745;27;20054;-71
2022/09/16 09:08:09;;;;;;;18.05;2.53;;;;;;;29.34;34.95;94477.59;5081662;28;20096;-70
2022/09/16 09:10:52;;;;;;;10.52;2.97;;;;;;;29.41;35.46;94477.72;5074915;28;21529;-71
2022/09/16 09:13:56;;;;;;;12.05;2.65;;;;;;;29.24;35.36;94487.00;5082265;28;20440;-67
2022/09/16 09:16:41;;;;;;;11.77;3.38;;;;;;;29.20;35.62;94480.06;5097988;27;20796;-68
2022/09/16 09:19:41;;;;;;;11.88;2.63;;;;;;;29.23;35.55;94479.34;5099038;27;20095;-67
2022/09/16 09:22:22;;;;;;;17.98;2.50;;;;;;;29.17;35.69;94490.38;5099349;27;20585;-67
2022/09/16 09:24:52;;;;;;;13.00;2.40;;;;;;;28.99;36.54;94489.25;5098587;27;20044;-67
2022/09/16 09:27:29;;;;;;;7.00;2.35;;;;;;;28.92;37.31;94483.78;5079991;27;20069;-67
2022/09/16 09:30:13;;;;;;;11.90;2.65;;;;;;;29.08;36.37;94489.81;5078327;28;20129;-66
2022/09/16 09:33:07;;;;;;;12.63;2.97;;;;;;;29.17;36.74;94487.69;5097476;27;20044;-67
2022/09/16 09:36:11;;;;;;;20.55;3.72;;;;;;;29.20;37.52;94474.69;5094594;27;20036;-67
2022/09/16 09:38:44;;;;;;;15.60;2.63;;;;;;;29.25;36.78;94482.44;5096846;27;20074;-67
2022/09/16 09:41:13;;;;;;;16.00;2.22;;;;;;;29.11;35.78;94472.22;5097667;27;20097;-67
2022/09/16 09:44:21;;;;;;;21.95;3.35;;;;;;;29.13;37.25;94470.72;5098056;27;20047;-66
2022/09/16 09:46:54;;;;;;;16.10;3.28;;;;;;;29.04;37.36;94478.22;5109061;27;20040;-68
2022/09/16 09:49:36;;;;;;;9.65;2.65;;;;;;;28.88;37.16;94469.53;5100873;27;20439;-67
2022/09/16 09:52:09;;;;;;;9.70;2.42;;;;;;;28.60;37.23;94466.00;5095460;27;20067;-67
2022/09/16 09:54:37;;;;;;;18.42;2.92;;;;;;;28.32;37.56;94471.53;5097519;27;20043;-68
2022/09/16 09:57:17;;;;;;;14.23;2.80;;;;;;;28.28;38.12;94470.72;5097284;28;20603;-68
2022/09/16 09:59:51;;;;;;;8.85;2.78;;;;;;;28.13;36.90;94468.88;5081353;28;20047;-68
2022/09/16 10:02:20;;;;;;;10.48;2.95;;;;;;;28.13;37.84;94466.22;5098254;28;20055;-68
2022/09/16 10:04:48;;;;;;;8.65;2.15;;;;;;;28.24;38.14;94458.41;5098210;28;20048;-68
2022/09/16 10:07:19;;;;;;;15.07;2.85;;;;;;;28.29;38.81;94474.94;5099593;28;20480;-68
2022/09/16 10:10:20;;;;;;;16.80;2.70;;;;;;;28.33;38.15;94486.50;5095865;28;20052;-68
2022/09/16 10:12:47;;;;;;;13.45;2.45;;;;;;;28.08;38.75;94474.53;5080971;28;20498;-68
2022/09/16 10:15:24;;;;;;;11.00;2.95;;;;;;;28.12;37.78;94488.75;5096923;28;20035;-67
2022/09/16 10:17:52;;;;;;;17.65;2.55;;;;;;;27.98;39.09;94500.72;5097613;28;20497;-66
2022/09/16 10:20:27;;;;;;;13.90;2.78;;;;;;;27.92;39.24;94509.34;5096067;28;20134;-68
2022/09/16 10:23:05;;;;;;;10.95;2.75;;;;;;;27.92;40.04;94512.81;5101194;28;20647;-67
2022/09/16 10:25:33;;;;;;;9.05;1.92;;;;;;;27.71;39.76;94526.44;5098909;28;20182;-68
2022/09/16 10:28:04;;;;;;;12.95;2.47;;;;;;;27.33;40.90;94535.09;5098536;28;20036;-68
2022/09/16 10:30:51;;;;;;;11.77;2.05;;;;;;;26.99;42.19;94545.28;5098658;28;20032;-68
2022/09/16 10:33:29;;;;;;;12.38;3.40;;;;;;;26.81;44.32;94579.56;5101835;28;20163;-68
2022/09/16 10:36:00;;;;;;;15.25;2.78;;;;;;;26.19;47.08;94608.28;5076185;28;20093;-68
2022/09/16 10:38:39;;;;;;;11.27;2.83;;;;;;;25.16;56.10;94658.66;5103682;28;20055;-65
2022/09/16 10:41:09;;;;;;;18.98;3.55;;;;;;;23.23;76.11;94691.84;5078881;28;20064;-66
2022/09/16 10:43:38;;;;;;;18.08;4.00;;;;;;;21.34;94.56;94701.22;5101047;28;20035;-66
2022/09/16 10:46:05;;;;;;;10.60;3.50;;;;;;;20.35;100.00;94730.09;5098231;28;20665;-73
2022/09/16 10:48:34;;;;;;;10.63;3.88;;;;;;;19.80;100.00;94720.25;5100345;28;20054;-72
2022/09/16 10:51:05;;;;;;;17.48;3.55;;;;;;;19.44;100.00;94699.69;5096242;28;20039;-72
2022/09/16 10:53:39;;;;;;;12.88;2.38;;;;;;;19.28;100.00;94715.00;5099907;28;20544;-73
2022/09/16 10:56:19;;;;;;;11.20;3.30;;;;;;;19.12;100.00;94698.59;5097481;28;20486;-72
2022/09/16 10:58:46;;;;;;;10.90;3.63;;;;;;;19.00;100.00;94679.81;5097750;28;20121;-73
2022/09/16 11:01:32;;;;;;;18.33;3.63;;;;;;;18.98;100.00;94689.84;5078393;28;20132;-72
2022/09/16 11:04:05;;;;;;;18.98;3.55;;;;;;;18.95;100.00;94691.22;5075367;28;20182;-72
2022/09/16 11:06:43;;;;;;;13.18;3.35;;;;;;;18.84;100.00;94653.66;5102739;27;20023;-72
2022/09/16 11:09:22;;;;;;;10.88;2.90;;;;;;;18.91;100.00;94658.56;5106527;27;20494;-73
2022/09/16 11:12:21;;;;;;;14.00;3.65;;;;;;;18.99;100.00;94614.91;5080231;28;20463;-73
2022/09/16 11:15:01;;;;;;;12.13;4.00;;;;;;;19.01;100.00;94620.66;5081465;28;20048;-73
2022/09/16 11:17:35;;;;;;;14.18;3.92;;;;;;;19.06;100.00;94617.94;5076975;28;20050;-73
2022/09/16 11:20:31;;;;;;;15.77;3.38;;;;;;;19.05;100.00;94600.53;5085314;28;20105;-73
2022/09/16 11:23:16;;;;;;;11.75;3.67;;;;;;;19.04;100.00;94583.94;5075470;27;20035;-72
2022/09/16 11:25:49;;;;;;;;;;;;;;;19.13;100.00;94572.72;5106201;27;20067;-73
2022/09/16 11:28:24;;;;;;;9.32;3.65;;;;;;;19.14;100.00;94566.34;5115056;27;19924;-72
2022/09/16 11:31:02;;;;;;;19.50;4.10;;;;;;;19.29;100.00;94553.66;5082580;28;20039;-73
2022/09/16 11:33:54;;;;;;;14.65;4.32;;;;;;;19.47;100.00;94532.75;5084957;28;20814;-74
2022/09/16 11:36:39;;;;;;;13.10;2.92;;;;;;;19.63;100.00;94536.66;5102300;27;20043;-72
2022/09/16 11:39:21;;;;;;;12.05;3.92;;;;;;;19.88;100.00;94510.00;5081575;27;20039;-74
2022/09/16 11:42:12;;;;;;;13.10;2.90;;;;;;;20.18;100.00;94495.34;5107879;27;20043;-74
2022/09/16 11:45:15;;;;;;;14.15;2.75;;;;;;;20.32;100.00;94492.66;5080250;28;20678;-73
2022/09/16 11:48:06;;;;;;;11.43;3.05;;;;;;;20.40;100.00;94495.38;5068392;27;20055;-74
2022/09/16 11:50:53;;;;;;;12.07;3.25;;;;;;;20.52;100.00;94471.00;5098029;27;20043;-74
2022/09/16 11:53:44;;;;;;;8.30;2.85;;;;;;;20.89;100.00;94474.34;5083069;27;20043;-74
2022/09/16 11:56:20;;;;;;;9.10;2.72;;;;;;;21.26;100.00;94482.13;5084080;27;20169;-73
2022/09/16 11:59:00;;;;;;;7.18;2.22;;;;;;;21.77;100.00;94475.41;5082137;28;20132;-74